createdAt,value
2022-10-21T00:00:18.077Z,9.41
2022-10-21T00:05:19.764Z,9.37
2022-10-21T00:10:21.413Z,9.32
2022-10-21T00:15:23.145Z,9.27
2022-10-21T00:20:24.823Z,9.22
2022-10-21T00:25:26.545Z,9.14
2022-10-21T00:30:28.262Z,9.10
2022-10-21T00:35:33.244Z,9.07
2022-10-21T00:40:34.996Z,9.06
2022-10-21T00:45:36.628Z,9.01
2022-10-21T00:50:42.610Z,8.97
2022-10-21T00:55:48.429Z,8.93
2022-10-21T01:00:50.372Z,8.93
2022-10-21T01:05:52.364Z,8.90
2022-10-21T01:10:54.692Z,8.85
2022-10-21T01:16:06.305Z,8.78
2022-10-21T01:21:16.864Z,8.77
2022-10-21T01:26:26.629Z,8.75
2022-10-21T01:31:33.154Z,8.73
2022-10-21T01:36:49.107Z,8.72
2022-10-21T01:42:00.047Z,8.70
2022-10-21T01:47:05.548Z,8.74
2022-10-21T01:52:07.267Z,8.77
2022-10-21T01:57:08.987Z,8.77
2022-10-21T02:02:10.737Z,8.80
2022-10-21T02:07:12.440Z,8.82
2022-10-21T02:12:14.183Z,8.83
2022-10-21T02:17:18.136Z,8.84
2022-10-21T02:22:20.707Z,8.86
2022-10-21T02:27:22.446Z,8.83
2022-10-21T02:32:35.659Z,8.87
2022-10-21T02:37:54.543Z,8.86
2022-10-21T02:43:04.837Z,8.86
2022-10-21T02:48:06.518Z,8.80
2022-10-21T02:53:08.193Z,8.80
2022-10-21T02:58:09.873Z,8.89
2022-10-21T03:03:11.558Z,8.89
2022-10-21T03:08:13.236Z,8.92
2022-10-21T03:13:14.899Z,8.96
2022-10-21T03:18:16.623Z,9.00
2022-10-21T03:23:18.924Z,9.05
2022-10-21T03:28:20.585Z,9.09
2022-10-21T03:33:22.220Z,9.11
2022-10-21T03:38:23.859Z,9.16
2022-10-21T03:43:25.630Z,9.14
2022-10-21T03:48:27.346Z,9.13
2022-10-21T03:53:42.769Z,9.14
2022-10-21T03:58:44.735Z,9.10
2022-10-21T04:03:46.375Z,8.95
2022-10-21T04:08:48.126Z,9.03
2022-10-21T04:13:49.842Z,9.03
2022-10-21T04:18:51.515Z,9.10
2022-10-21T04:23:53.205Z,9.08
2022-10-21T04:28:54.906Z,9.06
2022-10-21T04:33:56.583Z,9.03
2022-10-21T04:38:58.251Z,9.01
2022-10-21T04:44:00.937Z,9.07
2022-10-21T04:49:02.592Z,9.12
2022-10-21T04:54:04.600Z,9.16
2022-10-21T04:59:06.470Z,9.20
2022-10-21T05:04:08.160Z,9.29
2022-10-21T05:09:10.209Z,9.34
2022-10-21T05:14:11.917Z,9.36
2022-10-21T05:19:13.676Z,9.38
2022-10-21T05:24:15.659Z,9.40
2022-10-21T05:29:17.412Z,9.43
2022-10-21T05:34:19.101Z,9.45
2022-10-21T05:39:20.753Z,9.49
2022-10-21T05:44:22.476Z,9.51
2022-10-21T05:49:24.183Z,9.49
2022-10-21T05:54:25.881Z,9.50
2022-10-21T05:59:27.570Z,9.48
2022-10-21T06:04:29.180Z,9.52
2022-10-21T06:09:30.891Z,9.47
2022-10-21T06:14:32.585Z,9.49
2022-10-21T06:19:34.330Z,9.45
2022-10-21T06:24:35.987Z,9.42
2022-10-21T06:29:37.890Z,9.43
2022-10-21T06:34:39.577Z,9.58
2022-10-21T06:39:41.258Z,9.60
2022-10-21T06:44:42.894Z,9.82
2022-10-21T06:49:44.515Z,9.71
2022-10-21T06:54:46.152Z,9.80
2022-10-21T06:59:47.906Z,9.79
2022-10-21T07:04:49.692Z,9.79
2022-10-21T07:09:51.400Z,9.86
2022-10-21T07:14:54.179Z,10.00
2022-10-21T07:19:55.821Z,10.03
2022-10-21T07:24:57.525Z,10.12
2022-10-21T07:29:59.296Z,10.18
2022-10-21T07:35:00.947Z,10.39
2022-10-21T07:40:02.670Z,10.43
2022-10-21T07:45:04.503Z,10.52
2022-10-21T07:50:06.426Z,10.67
2022-10-21T07:55:08.058Z,10.72
2022-10-21T08:00:10.452Z,10.87
2022-10-21T08:05:14.728Z,10.96
2022-10-21T08:10:16.380Z,11.06
2022-10-21T08:15:18.121Z,11.27
2022-10-21T08:20:19.885Z,11.35
2022-10-21T08:25:21.662Z,11.48
2022-10-21T08:30:23.318Z,11.55
2022-10-21T08:35:25.712Z,11.74
2022-10-21T08:40:29.397Z,11.87
2022-10-21T08:46:11.681Z,11.98
2022-10-21T08:51:23.746Z,12.26
2022-10-21T09:01:42.493Z,13.06
2022-10-21T09:06:59.200Z,13.25
2022-10-21T09:12:22.487Z,13.41
2022-10-21T09:18:02.635Z,13.90
2022-10-21T09:23:30.048Z,14.06
2022-10-21T09:28:31.821Z,14.35
2022-10-21T09:33:34.601Z,14.59
2022-10-21T09:38:42.953Z,14.95
2022-10-21T09:43:44.640Z,15.24
2022-10-21T09:49:25.952Z,15.38
2022-10-21T09:54:19.954Z,15.47
2022-10-21T09:59:23.400Z,15.69
2022-10-21T10:04:32.756Z,15.87
2022-10-21T10:09:34.568Z,15.93
2022-10-21T10:14:38.608Z,16.05
2022-10-21T10:19:40.299Z,16.10
2022-10-21T10:24:43.177Z,16.24
2022-10-21T10:29:49.391Z,16.34
2022-10-21T10:34:54.376Z,16.37
2022-10-21T10:39:57.290Z,16.43
2022-10-21T10:45:00.751Z,16.54
2022-10-21T10:50:02.552Z,16.68
2022-10-21T10:55:17.276Z,16.60
2022-10-21T11:00:22.496Z,16.62
2022-10-21T11:05:30.119Z,16.63
2022-10-21T11:10:44.808Z,16.64
2022-10-21T11:16:12.190Z,16.65
2022-10-21T11:21:26.070Z,16.66
2022-10-21T11:26:36.736Z,16.66
2022-10-21T11:32:10.032Z,16.61
2022-10-21T11:37:49.680Z,16.52
2022-10-21T11:42:51.839Z,16.47
2022-10-21T11:48:16.717Z,16.58
2022-10-21T11:53:33.082Z,16.49
2022-10-21T11:58:43.661Z,16.56
2022-10-21T12:04:09.881Z,16.56
2022-10-21T12:09:22.544Z,16.45
2022-10-21T12:14:31.126Z,16.43
2022-10-21T12:19:33.397Z,16.41
2022-10-21T12:24:44.882Z,16.34
2022-10-21T12:29:59.331Z,16.25
2022-10-21T12:35:01.246Z,16.20
2022-10-21T12:40:12.215Z,16.18
2022-10-21T12:45:31.228Z,16.11
2022-10-21T12:50:33.325Z,16.12
2022-10-21T12:55:39.858Z,16.11
2022-10-21T13:00:44.557Z,16.07
2022-10-21T13:05:46.228Z,16.07
2022-10-21T13:11:05.938Z,16.07
2022-10-21T13:16:19.617Z,16.02
2022-10-21T13:21:23.904Z,15.98
2022-10-21T13:26:27.077Z,15.85
2022-10-21T13:31:28.933Z,15.89
2022-10-21T13:36:41.298Z,15.86
2022-10-21T13:41:42.978Z,15.89
2022-10-21T13:46:44.641Z,15.90
2022-10-21T13:51:46.617Z,15.87
2022-10-21T13:56:48.350Z,15.84
2022-10-21T14:01:54.025Z,15.78
2022-10-21T14:07:01.248Z,15.72
2022-10-21T14:12:07.920Z,15.66
2022-10-21T14:17:24.556Z,15.54
2022-10-21T14:22:26.340Z,15.51
2022-10-21T14:27:29.562Z,15.49
2022-10-21T14:32:31.200Z,15.44
2022-10-21T14:37:36.686Z,15.39
2022-10-21T14:42:39.700Z,15.35
2022-10-21T14:47:41.542Z,15.33
2022-10-21T14:52:43.180Z,15.32
2022-10-21T14:57:47.661Z,15.24
2022-10-21T15:02:49.699Z,15.19
2022-10-21T15:07:51.450Z,15.16
2022-10-21T15:12:53.549Z,15.12
2022-10-21T15:18:03.951Z,15.04
2022-10-21T15:23:20.132Z,15.03
2022-10-21T15:28:23.290Z,14.99
2022-10-21T15:33:26.065Z,14.93
2022-10-21T15:38:27.689Z,14.93
2022-10-21T15:43:29.372Z,15.00
2022-10-21T15:48:31.050Z,14.97
2022-10-21T15:53:32.727Z,14.94
2022-10-21T15:58:34.387Z,14.83
2022-10-21T16:03:36.028Z,14.84
2022-10-21T16:08:37.677Z,14.80
2022-10-21T16:13:39.418Z,14.92
2022-10-21T16:18:41.115Z,14.97
2022-10-21T16:23:42.951Z,14.97
2022-10-21T16:28:44.646Z,14.93
2022-10-21T16:33:46.319Z,15.03
2022-10-21T16:38:48.183Z,14.97
2022-10-21T16:43:50.008Z,14.96
2022-10-21T16:48:51.922Z,14.86
2022-10-21T16:53:53.727Z,14.95
2022-10-21T16:58:55.463Z,14.97
2022-10-21T17:03:57.256Z,14.92
2022-10-21T17:08:59.016Z,14.89
2022-10-21T17:14:01.702Z,14.88
2022-10-21T17:19:03.603Z,14.92
2022-10-21T17:24:05.460Z,14.95
2022-10-21T17:29:07.412Z,14.92
2022-10-21T17:34:20.933Z,14.92
2022-10-21T17:39:22.792Z,14.92
2022-10-21T17:44:25.005Z,14.90
2022-10-21T17:49:26.964Z,14.87
2022-10-21T17:54:29.940Z,14.80
2022-10-21T17:59:33.559Z,14.79
2022-10-21T18:04:35.205Z,14.77
2022-10-21T18:09:36.952Z,14.78
2022-10-21T18:14:38.604Z,14.80
2022-10-21T18:19:40.395Z,14.71
2022-10-21T18:24:42.193Z,14.68
2022-10-21T18:29:43.886Z,14.79
2022-10-21T18:34:45.636Z,14.75
2022-10-21T18:39:47.610Z,14.60
2022-10-21T18:44:51.230Z,14.52
2022-10-21T18:49:53.632Z,14.51
2022-10-21T18:54:55.448Z,14.56
2022-10-21T18:59:57.184Z,14.53
2022-10-21T19:05:01.400Z,14.48
2022-10-21T19:10:04.862Z,14.25
2022-10-21T19:15:07.417Z,14.32
2022-10-21T19:20:09.210Z,14.37
2022-10-21T19:25:10.872Z,14.26
2022-10-21T19:30:12.639Z,14.18
2022-10-21T19:35:14.319Z,14.18
2022-10-21T19:40:16.160Z,14.09
2022-10-21T19:45:18.179Z,14.15
2022-10-21T19:50:19.851Z,14.07
2022-10-21T19:55:21.672Z,13.93
2022-10-21T20:00:23.368Z,13.94
2022-10-21T20:05:25.031Z,13.87
2022-10-21T20:10:26.864Z,13.83
2022-10-21T20:15:28.583Z,13.89
2022-10-21T20:20:30.237Z,13.76
2022-10-21T20:25:31.883Z,13.70
2022-10-21T20:30:33.574Z,13.58
2022-10-21T20:35:42.037Z,13.58
2022-10-21T20:40:43.747Z,13.62
2022-10-21T20:45:45.487Z,13.54
2022-10-21T20:50:47.230Z,13.48
2022-10-21T20:55:54.104Z,13.44
2022-10-21T21:00:55.745Z,13.39
2022-10-21T21:06:01.471Z,13.30
2022-10-21T21:11:03.623Z,13.19
2022-10-21T21:16:18.726Z,13.11
2022-10-21T21:21:20.829Z,13.02
2022-10-21T21:26:24.341Z,13.03
2022-10-21T21:31:26.788Z,13.01
2022-10-21T21:36:28.552Z,13.05
2022-10-21T21:41:30.201Z,13.05
2022-10-21T21:46:31.860Z,13.02
2022-10-21T21:51:35.176Z,12.95
2022-10-21T21:56:36.855Z,12.91
2022-10-21T22:01:38.561Z,13.11
2022-10-21T22:06:40.259Z,13.01
2022-10-21T22:11:41.928Z,13.21
2022-10-21T22:16:43.569Z,13.22
2022-10-21T22:21:45.220Z,13.24
2022-10-21T22:26:46.892Z,13.33
2022-10-21T22:31:48.517Z,13.41
2022-10-21T22:36:50.194Z,13.39
2022-10-21T22:41:51.811Z,13.49
2022-10-21T22:46:53.454Z,13.61
2022-10-21T22:51:55.085Z,13.68
2022-10-21T22:56:56.800Z,13.64
2022-10-21T23:01:58.665Z,13.70
2022-10-21T23:07:00.547Z,13.65
2022-10-21T23:12:02.234Z,13.62
2022-10-21T23:17:03.860Z,13.71
2022-10-21T23:22:05.549Z,13.75
2022-10-21T23:27:07.248Z,13.61
2022-10-21T23:32:08.915Z,13.57
2022-10-21T23:37:10.694Z,13.61
2022-10-21T23:42:12.421Z,13.53
2022-10-21T23:47:14.042Z,13.54
2022-10-21T23:52:15.705Z,13.51
2022-10-21T23:57:17.350Z,13.60
